createdAt,value
2018-08-04T00:00:49.316Z,10.40
2018-08-04T00:03:17.197Z,11.70
2018-08-04T00:05:45.107Z,11.20
2018-08-04T00:08:13.718Z,11.50
2018-08-04T00:10:45.313Z,10.83
2018-08-04T00:13:13.149Z,10.43
2018-08-04T00:15:41.021Z,11.60
2018-08-04T00:18:09.674Z,11.80
2018-08-04T00:20:37.395Z,11.10
2018-08-04T00:23:05.348Z,9.60
2018-08-04T00:25:33.206Z,10.70
2018-08-04T00:28:01.126Z,10.67
2018-08-04T00:30:29.043Z,11.47
2018-08-04T00:32:56.914Z,11.80
2018-08-04T00:35:24.833Z,11.93
2018-08-04T00:37:52.601Z,11.93
2018-08-04T00:40:20.562Z,11.50
2018-08-04T00:42:49.411Z,11.47
2018-08-04T00:45:17.297Z,11.20
2018-08-04T00:47:45.865Z,11.60
2018-08-04T00:50:13.779Z,10.73
2018-08-04T00:52:41.711Z,12.03
2018-08-04T00:55:10.193Z,12.10
2018-08-04T00:57:38.151Z,12.47
2018-08-04T01:00:06.122Z,13.23
2018-08-04T01:02:33.975Z,11.73
2018-08-04T01:05:02.614Z,11.03
2018-08-04T01:07:30.518Z,11.33
2018-08-04T01:10:03.524Z,11.23
2018-08-04T01:12:31.834Z,12.33
2018-08-04T01:15:00.211Z,11.90
2018-08-04T01:17:28.457Z,12.70
2018-08-04T01:20:00.958Z,14.53
2018-08-04T01:22:29.915Z,13.07
2018-08-04T01:24:58.008Z,13.50
2018-08-04T01:27:26.671Z,13.00
2018-08-04T01:29:54.593Z,13.00
2018-08-04T01:32:22.557Z,11.90
2018-08-04T01:34:50.628Z,12.63
2018-08-04T01:37:18.542Z,12.73
2018-08-04T01:39:46.415Z,12.80
2018-08-04T01:42:14.304Z,12.37
2018-08-04T01:44:42.160Z,11.97
2018-08-04T01:47:10.038Z,12.67
2018-08-04T01:49:37.898Z,14.70
2018-08-04T01:52:06.584Z,12.87
2018-08-04T01:54:34.476Z,14.00
2018-08-04T01:57:02.371Z,13.40
2018-08-04T01:59:30.117Z,13.00
2018-08-04T02:01:58.049Z,11.97
2018-08-04T02:04:26.371Z,12.83
2018-08-04T02:06:55.937Z,13.13
2018-08-04T02:09:23.817Z,12.43
2018-08-04T02:11:52.311Z,12.97
2018-08-04T02:14:20.168Z,13.57
2018-08-04T02:16:48.037Z,15.33
2018-08-04T02:19:15.957Z,13.37
2018-08-04T02:21:43.867Z,12.27
2018-08-04T02:24:11.720Z,12.70
2018-08-04T02:26:39.622Z,13.40
2018-08-04T02:29:07.551Z,12.43
2018-08-04T02:31:35.553Z,12.13
2018-08-04T02:34:03.494Z,13.23
2018-08-04T02:36:32.000Z,13.67
2018-08-04T02:39:00.853Z,14.13
2018-08-04T02:41:28.738Z,12.93
2018-08-04T02:43:56.646Z,13.97
2018-08-04T02:46:25.204Z,15.53
2018-08-04T02:48:53.515Z,14.10
2018-08-04T02:51:21.391Z,15.27
2018-08-04T02:53:49.285Z,13.13
2018-08-04T02:56:17.205Z,13.73
2018-08-04T02:58:44.984Z,12.00
2018-08-04T03:01:12.778Z,11.07
2018-08-04T03:03:40.702Z,11.33
2018-08-04T03:06:08.598Z,12.03
2018-08-04T03:08:36.523Z,13.20
2018-08-04T03:11:04.403Z,12.70
2018-08-04T03:13:32.369Z,12.63
2018-08-04T03:16:00.874Z,13.23
2018-08-04T03:18:28.796Z,14.90
2018-08-04T03:20:56.691Z,13.30
2018-08-04T03:23:25.375Z,13.60
2018-08-04T03:25:53.328Z,15.37
2018-08-04T03:28:21.179Z,13.40
2018-08-04T03:30:49.079Z,14.33
2018-08-04T03:33:16.994Z,14.27
2018-08-04T03:35:45.113Z,14.80
2018-08-04T03:38:13.038Z,12.43
2018-08-04T03:49:42.049Z,14.80
2018-08-04T03:52:10.216Z,14.97
2018-08-04T03:54:38.494Z,14.80
2018-08-04T03:57:07.034Z,14.37
2018-08-04T03:59:36.120Z,16.47
2018-08-04T04:02:04.055Z,14.37
2018-08-04T04:04:32.857Z,13.93
2018-08-04T04:07:01.321Z,13.37
2018-08-04T04:09:29.285Z,12.10
2018-08-04T04:11:57.239Z,15.40
2018-08-04T04:14:25.169Z,15.03
2018-08-04T04:16:53.161Z,13.20
2018-08-04T04:19:21.046Z,12.83
2018-08-04T04:21:48.813Z,12.67
2018-08-04T04:24:16.563Z,12.43
2018-08-04T04:26:45.163Z,11.70
2018-08-04T04:29:13.116Z,13.53
2018-08-04T04:31:41.021Z,11.73
2018-08-04T04:34:08.919Z,14.00
2018-08-04T04:36:36.816Z,14.00
2018-08-04T04:39:08.323Z,15.57
2018-08-04T04:41:36.295Z,14.13
2018-08-04T04:44:04.209Z,15.03
2018-08-04T04:46:36.611Z,15.50
2018-08-04T04:49:04.902Z,16.00
2018-08-04T04:51:32.812Z,17.10
2018-08-04T04:54:00.710Z,18.20
2018-08-04T04:56:29.405Z,16.07
2018-08-04T04:58:57.315Z,16.20
2018-08-04T05:01:25.236Z,16.63
2018-08-04T05:03:53.402Z,18.83
2018-08-04T05:06:21.320Z,17.47
2018-08-04T05:08:49.861Z,19.30
2018-08-04T05:11:17.750Z,16.00
2018-08-04T05:13:45.515Z,15.50
2018-08-04T05:16:13.402Z,17.40
2018-08-04T05:18:41.550Z,16.83
2018-08-04T05:21:09.601Z,17.70
2018-08-04T05:23:37.792Z,18.20
2018-08-04T05:26:05.801Z,19.03
2018-08-04T05:28:33.702Z,19.47
2018-08-04T05:31:02.382Z,19.53
2018-08-04T05:33:31.078Z,18.83
2018-08-04T05:35:59.375Z,18.60
2018-08-04T05:38:27.159Z,17.00
2018-08-04T05:40:55.067Z,16.63
2018-08-04T05:43:23.091Z,16.90
2018-08-04T05:45:50.957Z,18.17
2018-08-04T05:48:18.906Z,18.67
2018-08-04T05:50:46.832Z,17.50
2018-08-04T05:53:15.410Z,17.50
2018-08-04T05:55:43.355Z,15.97
2018-08-04T05:58:11.973Z,17.10
2018-08-04T06:00:41.049Z,15.80
2018-08-04T06:03:08.780Z,16.00
2018-08-04T06:05:36.751Z,15.80
2018-08-04T06:08:04.750Z,16.13
2018-08-04T06:10:32.664Z,14.47
2018-08-04T06:13:01.154Z,13.93
2018-08-04T06:15:29.723Z,14.67
2018-08-04T06:17:57.644Z,14.60
2018-08-04T06:20:25.442Z,14.30
2018-08-04T06:22:53.394Z,15.30
2018-08-04T06:25:21.950Z,13.70
2018-08-04T06:27:51.547Z,16.10
2018-08-04T06:30:19.579Z,15.53
2018-08-04T06:32:47.491Z,15.23
2018-08-04T06:35:15.239Z,13.33
2018-08-04T06:37:43.037Z,12.73
2018-08-04T06:40:11.128Z,15.63
2018-08-04T06:42:39.037Z,13.63
2018-08-04T06:45:07.972Z,14.43
2018-08-04T06:47:35.831Z,14.33
2018-08-04T06:50:04.154Z,12.57
2018-08-04T06:52:32.154Z,12.57
2018-08-04T06:54:59.938Z,14.27
2018-08-04T06:57:27.817Z,13.70
2018-08-04T07:00:02.921Z,14.17
2018-08-04T07:02:30.663Z,13.87
2018-08-04T07:04:58.575Z,13.67
2018-08-04T07:07:26.484Z,13.23
2018-08-04T07:09:54.646Z,13.83
2018-08-04T07:12:22.602Z,14.33
2018-08-04T07:14:50.423Z,13.33
2018-08-04T07:17:18.353Z,12.40
2018-08-04T07:19:47.498Z,12.70
2018-08-04T07:22:15.416Z,12.90
2018-08-04T07:24:44.656Z,12.70
2018-08-04T07:27:12.465Z,12.70
2018-08-04T07:29:40.620Z,12.33
2018-08-04T07:32:09.895Z,12.23
2018-08-04T07:34:37.747Z,11.87
2018-08-04T07:37:06.047Z,12.90
2018-08-04T07:39:33.832Z,12.27
2018-08-04T07:42:02.394Z,12.73
2018-08-04T07:44:30.464Z,11.10
2018-08-04T07:46:58.451Z,10.63
2018-08-04T07:49:27.079Z,11.10
2018-08-04T07:51:54.995Z,11.33
2018-08-04T07:54:22.942Z,10.33
2018-08-04T07:56:50.860Z,10.00
2018-08-04T07:59:19.483Z,9.87
2018-08-04T08:01:47.444Z,9.47
2018-08-04T08:04:15.976Z,9.40
2018-08-04T08:06:44.668Z,9.60
2018-08-04T08:09:13.899Z,8.80
2018-08-04T08:11:41.834Z,8.30
2018-08-04T08:14:09.802Z,7.80
2018-08-04T08:16:39.139Z,8.50
2018-08-04T08:19:07.267Z,7.97
2018-08-04T08:21:35.054Z,8.87
2018-08-04T08:24:03.074Z,7.80
2018-08-04T08:26:31.020Z,8.73
2018-08-04T08:28:58.917Z,8.17
2018-08-04T08:31:26.910Z,7.77
2018-08-04T08:33:54.742Z,7.47
2018-08-04T08:36:22.669Z,8.23
2018-08-04T08:38:51.384Z,7.80
2018-08-04T08:41:19.296Z,8.27
2018-08-04T08:43:47.251Z,7.93
2018-08-04T08:46:15.191Z,7.20
2018-08-04T08:48:43.081Z,8.13
2018-08-04T08:51:11.136Z,8.47
2018-08-04T08:53:40.522Z,7.00
2018-08-04T08:56:08.760Z,6.40
2018-08-04T08:58:36.526Z,7.33
2018-08-04T09:01:05.455Z,7.93
2018-08-04T09:03:35.410Z,7.57
2018-08-04T09:06:03.426Z,7.67
2018-08-04T09:08:31.388Z,6.40
2018-08-04T09:10:59.242Z,7.30
2018-08-04T09:13:27.022Z,7.37
2018-08-04T09:15:54.928Z,7.13
2018-08-04T09:18:24.133Z,7.70
2018-08-04T09:20:52.059Z,7.43
2018-08-04T09:23:20.007Z,7.60
2018-08-04T09:25:48.320Z,6.60
2018-08-04T09:28:16.287Z,7.40
2018-08-04T09:30:44.276Z,7.47
2018-08-04T09:33:12.224Z,7.23
2018-08-04T09:35:40.302Z,6.83
2018-08-04T09:38:09.230Z,6.77
2018-08-04T09:40:37.091Z,6.33
2018-08-04T09:43:05.860Z,6.90
2018-08-04T09:45:33.870Z,6.60
2018-08-04T09:48:02.711Z,6.37
2018-08-04T09:50:30.634Z,6.10
2018-08-04T09:52:58.388Z,7.20
2018-08-04T09:55:26.234Z,7.60
2018-08-04T09:57:54.101Z,6.47
2018-08-04T10:00:31.886Z,6.07
2018-08-04T10:03:00.304Z,6.07
2018-08-04T10:05:28.244Z,6.60
2018-08-04T10:07:56.936Z,6.07
2018-08-04T10:10:24.887Z,6.20
2018-08-04T10:12:52.957Z,5.50
2018-08-04T10:15:20.895Z,5.40
2018-08-04T10:17:48.748Z,5.00
2018-08-04T10:20:17.574Z,6.17
2018-08-04T10:22:45.646Z,5.90
2018-08-04T10:25:13.994Z,5.60
2018-08-04T10:27:42.620Z,6.20
2018-08-04T10:30:11.928Z,5.70
2018-08-04T10:32:39.934Z,5.87
2018-08-04T10:35:08.722Z,6.20
2018-08-04T10:37:37.410Z,5.77
2018-08-04T10:40:05.608Z,5.30
2018-08-04T10:42:33.494Z,5.90
2018-08-04T10:45:01.425Z,6.17
2018-08-04T10:47:29.347Z,6.00
2018-08-04T10:49:57.252Z,6.30
2018-08-04T10:52:25.431Z,6.10
2018-08-04T10:54:53.198Z,5.87
2018-08-04T10:57:21.166Z,5.80
2018-08-04T10:59:49.455Z,5.80
2018-08-04T11:02:17.457Z,6.67
2018-08-04T11:04:45.382Z,6.00
2018-08-04T11:07:13.274Z,6.40
2018-08-04T11:09:41.201Z,6.30
2018-08-04T11:12:09.189Z,7.20
2018-08-04T11:14:37.166Z,7.53
2018-08-04T11:17:04.951Z,7.10
2018-08-04T11:19:33.456Z,6.90
2018-08-04T11:22:02.208Z,6.63
2018-08-04T11:24:30.121Z,6.00
2018-08-04T11:26:58.535Z,7.37
2018-08-04T11:29:27.103Z,7.40
2018-08-04T11:31:55.009Z,7.20
2018-08-04T11:34:22.738Z,7.07
2018-08-04T11:36:50.754Z,7.73
2018-08-04T11:39:18.699Z,7.60
2018-08-04T11:41:46.632Z,7.13
2018-08-04T11:44:14.472Z,6.50
2018-08-04T11:46:42.345Z,6.87
2018-08-04T11:49:10.599Z,6.90
2018-08-04T11:51:38.631Z,7.33
2018-08-04T11:54:06.576Z,7.00
2018-08-04T11:56:34.825Z,8.23
2018-08-04T11:59:03.531Z,6.87
2018-08-04T12:01:31.979Z,8.00
2018-08-04T12:03:59.987Z,8.60
2018-08-04T12:06:28.035Z,7.80
2018-08-04T12:08:56.080Z,7.63
2018-08-04T12:11:23.834Z,8.20
2018-08-04T12:13:51.748Z,8.20
2018-08-04T12:16:20.303Z,8.13
2018-08-04T12:18:48.201Z,8.43
2018-08-04T12:21:16.133Z,7.70
2018-08-04T12:23:44.032Z,7.43
2018-08-04T12:26:11.974Z,7.40
2018-08-04T12:28:39.875Z,7.93
2018-08-04T12:31:07.796Z,8.30
2018-08-04T12:33:35.619Z,8.70
2018-08-04T12:36:04.512Z,9.40
2018-08-04T12:38:32.373Z,8.67
2018-08-04T12:41:00.292Z,8.60
2018-08-04T12:43:28.212Z,8.10
2018-08-04T12:45:56.192Z,8.53
2018-08-04T12:48:28.185Z,8.97
2018-08-04T12:50:56.898Z,8.07
2018-08-04T12:53:25.066Z,7.87
2018-08-04T12:55:52.838Z,8.17
2018-08-04T12:58:20.850Z,8.03
2018-08-04T13:00:48.793Z,8.87
2018-08-04T13:03:16.693Z,7.90
2018-08-04T13:05:44.927Z,8.93
2018-08-04T13:08:12.915Z,7.70
2018-08-04T13:10:40.840Z,7.17
2018-08-04T13:13:08.668Z,9.13
2018-08-04T13:15:37.186Z,9.30
2018-08-04T13:18:05.018Z,8.37
2018-08-04T13:20:32.954Z,8.13
2018-08-04T13:23:02.256Z,8.30
2018-08-04T13:25:30.375Z,8.10
2018-08-04T13:27:58.297Z,7.27
2018-08-04T13:30:26.238Z,6.80
2018-08-04T13:32:54.810Z,7.07
2018-08-04T13:35:23.217Z,7.37
2018-08-04T13:37:51.143Z,7.23
2018-08-04T13:40:18.995Z,7.63
2018-08-04T13:42:46.955Z,7.70
2018-08-04T13:45:15.000Z,7.50
2018-08-04T13:47:43.258Z,7.93
2018-08-04T13:50:11.053Z,7.00
2018-08-04T13:52:39.039Z,7.63
2018-08-04T13:55:07.164Z,7.50
2018-08-04T13:57:35.888Z,8.00
2018-08-04T14:00:04.363Z,6.83
2018-08-04T14:02:32.266Z,7.03
2018-08-04T14:05:00.860Z,6.73
2018-08-04T14:07:28.807Z,7.20
2018-08-04T14:09:56.741Z,7.33
2018-08-04T14:12:24.999Z,7.50
2018-08-04T14:14:52.948Z,7.50
2018-08-04T14:17:20.987Z,7.57
2018-08-04T14:19:48.960Z,6.50
2018-08-04T14:22:17.197Z,7.43
2018-08-04T14:24:45.767Z,7.70
2018-08-04T14:27:13.692Z,7.57
2018-08-04T14:29:41.598Z,7.57
2018-08-04T14:32:09.789Z,7.07
2018-08-04T14:34:37.543Z,7.27
2018-08-04T14:37:05.438Z,7.03
2018-08-04T14:39:33.652Z,7.37
2018-08-04T14:42:01.562Z,7.63
2018-08-04T14:44:29.527Z,7.57
2018-08-04T14:46:57.260Z,7.80
2018-08-04T14:49:25.233Z,7.90
2018-08-04T14:51:53.191Z,7.97
2018-08-04T14:54:21.091Z,7.10
2018-08-04T14:56:48.998Z,7.13
2018-08-04T14:59:16.989Z,6.77
2018-08-04T15:01:44.897Z,6.70
2018-08-04T15:04:13.214Z,7.10
2018-08-04T15:06:40.966Z,7.83
2018-08-04T15:09:10.674Z,7.27
2018-08-04T15:11:39.236Z,8.07
2018-08-04T15:14:07.831Z,7.63
2018-08-04T15:16:36.400Z,7.20
2018-08-04T15:19:04.561Z,7.37
2018-08-04T15:21:32.492Z,7.00
2018-08-04T15:24:01.345Z,7.00
2018-08-04T15:26:29.296Z,8.10
2018-08-04T15:28:57.179Z,7.30
2018-08-04T15:31:25.001Z,7.40
2018-08-04T15:33:53.125Z,7.70
2018-08-04T15:36:21.089Z,8.20
2018-08-04T15:38:48.808Z,8.80
2018-08-04T15:41:16.933Z,11.27
2018-08-04T15:43:44.917Z,8.23
2018-08-04T15:46:13.137Z,6.87
2018-08-04T15:48:40.990Z,7.40
2018-08-04T15:51:08.853Z,7.00
2018-08-04T15:53:36.777Z,7.40
2018-08-04T15:56:04.537Z,7.40
2018-08-04T15:58:32.608Z,7.43
2018-08-04T16:01:00.533Z,7.30
2018-08-04T16:03:28.799Z,8.10
2018-08-04T16:05:56.704Z,7.60
2018-08-04T16:08:24.706Z,7.43
2018-08-04T16:10:52.649Z,7.60
2018-08-04T16:13:20.885Z,7.70
2018-08-04T16:15:48.806Z,7.23
2018-08-04T16:18:16.723Z,7.90
2018-08-04T16:20:44.619Z,8.10
2018-08-04T16:23:12.515Z,8.47
2018-08-04T16:25:40.677Z,7.00
2018-08-04T16:28:08.626Z,9.30
2018-08-04T16:30:36.627Z,7.40
2018-08-04T16:33:04.535Z,7.83
2018-08-04T16:35:32.504Z,7.50
2018-08-04T16:38:00.427Z,7.47
2018-08-04T16:40:28.183Z,6.90
2018-08-04T16:42:56.088Z,8.30
2018-08-04T16:45:24.015Z,7.37
2018-08-04T16:47:51.772Z,6.77
2018-08-04T16:50:19.679Z,7.23
2018-08-04T16:52:47.595Z,6.83
2018-08-04T16:55:15.543Z,7.73
2018-08-04T16:57:43.772Z,6.70
2018-08-04T17:00:11.543Z,7.20
2018-08-04T17:02:39.464Z,8.23
2018-08-04T17:05:07.515Z,7.87
2018-08-04T17:07:35.506Z,8.57
2018-08-04T17:10:03.780Z,8.17
2018-08-04T17:12:31.710Z,8.60
2018-08-04T17:14:59.982Z,7.63
2018-08-04T17:17:27.892Z,8.33
2018-08-04T17:19:55.767Z,9.43
2018-08-04T17:22:23.979Z,9.13
2018-08-04T17:24:52.041Z,9.93
2018-08-04T17:27:26.144Z,9.63
2018-08-04T17:29:54.041Z,9.70
2018-08-04T17:32:22.426Z,8.77
2018-08-04T17:34:50.875Z,9.50
2018-08-04T17:37:19.493Z,9.10
2018-08-04T17:39:47.427Z,10.17
2018-08-04T17:42:15.819Z,9.17
2018-08-04T17:44:43.602Z,8.73
2018-08-04T17:47:11.470Z,8.70
2018-08-04T17:49:39.420Z,9.03
2018-08-04T17:52:07.400Z,9.00
2018-08-04T17:54:35.349Z,9.80
2018-08-04T17:57:03.428Z,9.90
2018-08-04T17:59:31.276Z,9.60
2018-08-04T18:01:59.570Z,9.43
2018-08-04T18:04:27.526Z,8.77
2018-08-04T18:06:55.933Z,9.83
2018-08-04T18:09:23.843Z,9.47
2018-08-04T18:11:51.791Z,8.93
2018-08-04T18:14:19.699Z,10.30
2018-08-04T18:16:47.568Z,9.00
2018-08-04T18:19:15.415Z,9.60
2018-08-04T18:21:43.754Z,10.20
2018-08-04T18:24:11.545Z,9.40
2018-08-04T18:26:39.405Z,10.70
2018-08-04T18:29:08.048Z,10.27
2018-08-04T18:31:35.972Z,9.43
2018-08-04T18:34:03.946Z,9.97
2018-08-04T18:36:31.962Z,9.67
2018-08-04T18:39:00.483Z,10.90
2018-08-04T18:41:28.799Z,11.40
2018-08-04T18:43:57.214Z,11.00
2018-08-04T18:46:25.125Z,9.80
2018-08-04T18:48:52.979Z,10.90
2018-08-04T18:51:21.817Z,11.00
2018-08-04T18:53:49.696Z,11.07
2018-08-04T18:56:18.210Z,9.50
2018-08-04T18:58:46.099Z,10.10
2018-08-04T19:01:14.013Z,10.20
2018-08-04T19:03:41.932Z,10.50
2018-08-04T19:06:09.856Z,11.00
2018-08-04T19:08:37.628Z,11.30
2018-08-04T19:11:05.454Z,10.83
2018-08-04T19:13:33.341Z,11.17
2018-08-04T19:16:01.499Z,10.60
2018-08-04T19:18:29.555Z,10.20
2018-08-04T19:20:57.539Z,10.30
2018-08-04T19:23:26.142Z,10.80
2018-08-04T19:25:54.015Z,10.30
2018-08-04T19:28:21.932Z,10.00
2018-08-04T19:30:49.888Z,11.83
2018-08-04T19:33:18.512Z,11.27
2018-08-04T19:35:47.217Z,11.30
2018-08-04T19:38:15.155Z,12.00
2018-08-04T19:40:43.036Z,11.53
2018-08-04T19:43:11.582Z,12.20
2018-08-04T19:45:40.626Z,11.87
2018-08-04T19:48:08.687Z,10.40
2018-08-04T19:50:37.122Z,11.77
2018-08-04T19:53:05.307Z,13.47
2018-08-04T19:55:33.269Z,13.63
2018-08-04T19:58:01.026Z,11.50
2018-08-04T20:00:28.975Z,12.17
2018-08-04T20:02:56.729Z,12.10
2018-08-04T20:05:24.474Z,11.80
2018-08-04T20:07:52.367Z,13.23
2018-08-04T20:10:20.126Z,12.87
2018-08-04T20:12:47.878Z,11.80
2018-08-04T20:15:15.769Z,11.67
2018-08-04T20:17:43.543Z,12.20
2018-08-04T20:20:11.797Z,13.33
2018-08-04T20:22:40.580Z,12.17
2018-08-04T20:25:08.551Z,12.90
2018-08-04T20:27:36.590Z,12.97
2018-08-04T20:30:05.925Z,12.73
2018-08-04T20:32:33.855Z,12.57
2018-08-04T20:35:01.825Z,14.40
2018-08-04T20:37:29.704Z,13.87
2018-08-04T20:39:57.660Z,13.40
2018-08-04T20:42:25.527Z,14.37
2018-08-04T20:44:53.457Z,14.23
2018-08-04T20:47:22.235Z,14.23
2018-08-04T20:49:50.141Z,14.00
2018-08-04T20:52:18.732Z,14.73
2018-08-04T20:54:47.146Z,15.03
2018-08-04T20:57:15.464Z,13.10
2018-08-04T20:59:43.344Z,13.87
2018-08-04T21:02:11.117Z,12.90
2018-08-04T21:04:39.068Z,14.63
2018-08-04T21:07:07.119Z,13.90
2018-08-04T21:09:35.006Z,14.83
2018-08-04T21:12:02.914Z,14.00
2018-08-04T21:14:31.472Z,14.53
2018-08-04T21:16:59.920Z,14.60
2018-08-04T21:19:27.899Z,15.50
2018-08-04T21:21:55.688Z,14.90
2018-08-04T21:24:24.794Z,13.00
2018-08-04T21:26:53.445Z,13.40
2018-08-04T21:29:22.002Z,14.53
2018-08-04T21:31:49.809Z,13.00
2018-08-04T21:34:17.715Z,15.40
2018-08-04T21:36:45.681Z,15.37
2018-08-04T21:39:14.947Z,16.20
2018-08-04T21:41:43.879Z,15.63
2018-08-04T21:44:12.447Z,15.47
2018-08-04T21:46:46.430Z,14.97
2018-08-04T21:49:14.403Z,16.13
2018-08-04T21:51:43.669Z,15.50
2018-08-04T21:54:13.058Z,16.47
2018-08-04T21:56:42.416Z,16.50
2018-08-04T21:59:10.624Z,16.87
2018-08-04T22:01:43.203Z,16.63
2018-08-04T22:04:12.147Z,17.43
2018-08-04T22:06:50.758Z,14.43
2018-08-04T22:09:20.780Z,14.20
2018-08-04T22:11:48.945Z,15.30
2018-08-04T22:14:17.681Z,15.90
2018-08-04T22:16:46.205Z,15.17
2018-08-04T22:19:14.466Z,16.57
2018-08-04T22:21:42.332Z,16.20
2018-08-04T22:24:10.839Z,15.30
2018-08-04T22:26:38.600Z,17.47
2018-08-04T22:29:06.592Z,16.60
2018-08-04T22:31:34.485Z,16.77
2018-08-04T22:34:02.380Z,17.37
2018-08-04T22:36:30.879Z,16.37
2018-08-04T22:38:58.641Z,17.47
2018-08-04T22:41:26.730Z,16.20
2018-08-04T22:43:54.728Z,17.43
2018-08-04T22:46:23.892Z,17.40
2018-08-04T22:48:52.810Z,17.63
2018-08-04T22:51:26.913Z,18.50
2018-08-04T22:53:55.219Z,18.20
2018-08-04T22:56:23.464Z,17.47
2018-08-04T22:58:51.210Z,17.20
2018-08-04T23:01:19.121Z,16.20
2018-08-04T23:06:15.204Z,17.13
2018-08-04T23:08:43.114Z,17.60
2018-08-04T23:11:11.008Z,17.53
2018-08-04T23:13:39.377Z,17.33
2018-08-04T23:16:07.130Z,17.40
2018-08-04T23:18:35.843Z,16.17
2018-08-04T23:21:03.751Z,17.63
2018-08-04T23:23:31.573Z,16.30
2018-08-04T23:25:59.809Z,16.10
2018-08-04T23:28:27.776Z,17.00
2018-08-04T23:30:55.704Z,17.93
2018-08-04T23:33:24.192Z,15.57
2018-08-04T23:35:51.937Z,17.40
2018-08-04T23:38:20.104Z,19.80
2018-08-04T23:40:48.040Z,17.63
2018-08-04T23:43:15.781Z,19.00
2018-08-04T23:45:43.549Z,17.53
2018-08-04T23:48:11.474Z,17.60
2018-08-04T23:50:39.373Z,19.70
2018-08-04T23:53:07.278Z,18.90
2018-08-04T23:55:35.504Z,16.77
2018-08-04T23:58:03.454Z,17.57
